createdAt,value
2023-05-20T00:00:00.301Z,50.43
2023-05-20T00:01:00.232Z,50.11
2023-05-20T00:02:00.222Z,50.92
2023-05-20T00:03:00.303Z,50.92
2023-05-20T00:04:00.362Z,50.27
2023-05-20T00:05:00.408Z,50.43
2023-05-20T00:06:00.245Z,50.76
2023-05-20T00:07:00.180Z,50.43
2023-05-20T00:08:00.182Z,50.27
2023-05-20T00:09:00.222Z,50.43
2023-05-20T00:10:00.187Z,50.76
2023-05-20T00:11:00.300Z,50.43
2023-05-20T00:12:00.107Z,50.92
2023-05-20T00:13:00.147Z,50.43
2023-05-20T00:14:00.172Z,50.60
2023-05-20T00:15:00.153Z,51.08
2023-05-20T00:16:00.256Z,50.76
2023-05-20T00:17:00.241Z,50.27
2023-05-20T00:18:00.164Z,50.43
2023-05-20T00:19:00.304Z,50.43
2023-05-20T00:20:00.114Z,50.27
2023-05-20T00:21:00.170Z,50.43
2023-05-20T00:22:00.120Z,50.43
2023-05-20T00:23:00.061Z,50.27
2023-05-20T00:24:00.016Z,50.27
2023-05-20T00:25:00.023Z,50.43
2023-05-20T00:26:00.856Z,50.11
2023-05-20T00:27:00.044Z,50.43
2023-05-20T00:27:59.987Z,50.27
2023-05-20T00:28:59.989Z,50.43
2023-05-20T00:30:00.015Z,49.95
2023-05-20T00:30:59.980Z,50.43
2023-05-20T00:32:00.041Z,49.95
2023-05-20T00:32:59.990Z,50.76
2023-05-20T00:33:59.963Z,50.43
2023-05-20T00:34:59.956Z,51.88
2023-05-20T00:35:59.924Z,50.60
2023-05-20T00:36:59.969Z,50.27
2023-05-20T00:37:59.910Z,49.95
2023-05-20T00:38:59.910Z,49.79
2023-05-20T00:39:59.928Z,49.95
2023-05-20T00:40:59.904Z,50.43
2023-05-20T00:41:59.891Z,50.11
2023-05-20T00:42:59.909Z,50.76
2023-05-20T00:43:59.871Z,50.60
2023-05-20T00:44:59.867Z,49.79
2023-05-20T00:45:59.905Z,49.95
2023-05-20T00:46:59.859Z,50.27
2023-05-20T00:47:59.980Z,49.95
2023-05-20T00:48:59.827Z,49.63
2023-05-20T00:49:59.868Z,50.60
2023-05-20T00:50:59.842Z,49.15
2023-05-20T00:51:59.821Z,50.43
2023-05-20T00:52:59.924Z,50.11
2023-05-20T00:53:59.814Z,50.11
2023-05-20T00:54:59.805Z,50.11
2023-05-20T00:55:59.802Z,51.24
2023-05-20T00:56:59.774Z,50.76
2023-05-20T00:57:59.791Z,50.92
2023-05-20T00:58:59.815Z,51.08
2023-05-20T00:59:59.759Z,50.43
2023-05-20T01:00:59.765Z,50.43
2023-05-20T01:01:59.746Z,50.60
2023-05-20T01:02:59.844Z,50.43
2023-05-20T01:03:59.765Z,50.11
2023-05-20T01:04:59.752Z,50.27
2023-05-20T01:05:59.718Z,50.27
2023-05-20T01:06:59.699Z,50.27
2023-05-20T01:07:59.706Z,50.43
2023-05-20T01:08:59.725Z,50.60
2023-05-20T01:09:59.711Z,50.43
2023-05-20T01:10:59.717Z,50.92
2023-05-20T01:11:59.706Z,50.43
2023-05-20T01:12:59.671Z,50.76
2023-05-20T01:13:59.632Z,50.27
2023-05-20T01:14:59.671Z,50.43
2023-05-20T01:15:59.637Z,50.27
2023-05-20T01:16:59.620Z,50.11
2023-05-20T01:17:59.662Z,50.27
2023-05-20T01:18:59.647Z,50.43
2023-05-20T01:19:59.653Z,50.11
2023-05-20T01:20:59.593Z,49.79
2023-05-20T01:21:59.572Z,50.60
2023-05-20T01:22:59.591Z,50.43
2023-05-20T01:23:59.558Z,49.95
2023-05-20T01:24:59.583Z,50.11
2023-05-20T01:25:59.539Z,50.27
2023-05-20T01:26:59.539Z,50.11
2023-05-20T01:27:59.549Z,51.08
2023-05-20T01:28:59.588Z,50.60
2023-05-20T01:29:59.514Z,50.27
2023-05-20T01:30:59.584Z,49.95
2023-05-20T01:31:59.534Z,50.43
2023-05-20T01:32:59.521Z,50.60
2023-05-20T01:33:59.515Z,50.76
2023-05-20T01:34:59.507Z,49.95
2023-05-20T01:35:59.532Z,49.95
2023-05-20T01:36:59.475Z,50.60
2023-05-20T01:37:59.457Z,50.43
2023-05-20T01:38:59.443Z,50.76
2023-05-20T01:39:59.474Z,50.43
2023-05-20T01:40:59.483Z,50.11
2023-05-20T01:41:59.445Z,50.27
2023-05-20T01:42:59.444Z,50.60
2023-05-20T01:43:59.435Z,50.27
2023-05-20T01:44:59.428Z,50.76
2023-05-20T01:45:59.916Z,50.11
2023-05-20T01:46:59.438Z,50.43
2023-05-20T01:47:59.489Z,50.60
2023-05-20T01:48:59.382Z,50.60
2023-05-20T01:49:59.370Z,50.60
2023-05-20T01:50:59.381Z,50.76
2023-05-20T01:51:59.422Z,50.60
2023-05-20T01:52:59.365Z,50.60
2023-05-20T01:53:59.361Z,50.27
2023-05-20T01:54:59.351Z,50.11
2023-05-20T01:55:59.341Z,50.60
2023-05-20T01:56:59.360Z,50.60
2023-05-20T01:57:59.316Z,50.60
2023-05-20T01:58:59.319Z,50.92
2023-05-20T01:59:59.303Z,50.76
2023-05-20T02:00:59.339Z,50.43
2023-05-20T02:01:59.358Z,49.95
2023-05-20T02:02:59.331Z,50.92
2023-05-20T02:03:59.287Z,49.95
2023-05-20T02:04:59.273Z,50.43
2023-05-20T02:05:59.352Z,50.27
2023-05-20T02:06:59.260Z,50.43
2023-05-20T02:07:59.278Z,50.27
2023-05-20T02:08:59.261Z,50.11
2023-05-20T02:09:59.236Z,49.95
2023-05-20T02:10:59.237Z,50.27
2023-05-20T02:11:59.210Z,50.27
2023-05-20T02:12:59.279Z,50.43
2023-05-20T02:13:59.211Z,50.60
2023-05-20T02:14:59.211Z,49.95
2023-05-20T02:15:59.247Z,50.43
2023-05-20T02:16:59.216Z,50.43
2023-05-20T02:17:59.270Z,49.95
2023-05-20T02:22:03.330Z,49.95
2023-05-20T02:22:42.885Z,50.60
2023-05-20T02:23:54.258Z,50.27
2023-05-20T02:24:26.280Z,52.05
2023-05-20T02:25:26.268Z,56.07
2023-05-20T02:26:26.270Z,50.27
2023-05-20T02:27:26.277Z,50.11
2023-05-20T02:28:26.302Z,50.27
2023-05-20T02:29:26.259Z,50.27
2023-05-20T02:30:26.255Z,50.27
2023-05-20T02:31:26.270Z,49.79
2023-05-20T02:32:26.221Z,50.11
2023-05-20T02:33:26.222Z,50.60
2023-05-20T02:34:26.405Z,50.43
2023-05-20T02:35:26.200Z,50.92
2023-05-20T02:36:26.193Z,51.08
2023-05-20T02:37:26.185Z,50.76
2023-05-20T02:38:26.200Z,50.92
2023-05-20T02:39:26.226Z,52.37
2023-05-20T02:40:26.164Z,56.40
2023-05-20T02:41:26.173Z,51.40
2023-05-20T02:42:26.180Z,51.08
2023-05-20T02:43:26.185Z,51.08
2023-05-20T02:44:26.181Z,51.08
2023-05-20T02:45:26.130Z,51.08
2023-05-20T02:46:26.185Z,51.08
2023-05-20T02:47:26.135Z,51.24
2023-05-20T02:48:26.115Z,51.56
2023-05-20T02:49:26.118Z,51.40
2023-05-20T02:50:26.122Z,51.40
2023-05-20T02:51:26.112Z,51.56
2023-05-20T02:52:26.078Z,51.40
2023-05-20T02:53:26.073Z,51.24
2023-05-20T02:54:26.064Z,51.08
2023-05-20T02:55:26.096Z,51.08
2023-05-20T02:56:26.063Z,51.08
2023-05-20T02:57:26.041Z,51.08
2023-05-20T02:58:26.020Z,51.40
2023-05-20T02:59:26.011Z,51.08
2023-05-20T03:00:26.064Z,51.88
2023-05-20T03:01:26.069Z,51.72
2023-05-20T03:02:26.041Z,51.24
2023-05-20T03:03:25.988Z,51.08
2023-05-20T03:04:26.020Z,51.24
2023-05-20T03:05:25.969Z,50.60
2023-05-20T03:06:26.026Z,50.76
2023-05-20T03:07:25.969Z,51.08
2023-05-20T03:08:25.972Z,51.24
2023-05-20T03:09:25.931Z,51.08
2023-05-20T03:10:25.986Z,50.92
2023-05-20T03:11:25.981Z,51.24
2023-05-20T03:12:25.920Z,51.08
2023-05-20T03:13:25.899Z,50.60
2023-05-20T03:14:25.932Z,50.92
2023-05-20T03:15:25.926Z,50.76
2023-05-20T03:16:25.997Z,50.92
2023-05-20T03:17:25.929Z,51.08
2023-05-20T03:18:25.896Z,51.08
2023-05-20T03:19:25.989Z,51.88
2023-05-20T03:20:25.880Z,52.21
2023-05-20T03:21:25.903Z,51.08
2023-05-20T03:22:25.855Z,51.08
2023-05-20T03:23:25.833Z,50.76
2023-05-20T03:24:25.844Z,51.24
2023-05-20T03:25:25.815Z,51.08
2023-05-20T03:26:25.829Z,51.08
2023-05-20T03:27:25.850Z,51.88
2023-05-20T03:28:25.820Z,51.24
2023-05-20T03:29:25.803Z,50.27
2023-05-20T03:30:25.805Z,50.76
2023-05-20T03:31:25.886Z,51.08
2023-05-20T03:32:25.865Z,51.08
2023-05-20T03:33:25.810Z,51.24
2023-05-20T03:34:25.783Z,51.40
2023-05-20T03:35:25.826Z,50.76
2023-05-20T03:36:25.761Z,50.92
2023-05-20T03:37:25.764Z,51.24
2023-05-20T03:38:25.761Z,50.43
2023-05-20T03:39:25.727Z,51.72
2023-05-20T03:40:25.702Z,51.24
2023-05-20T03:41:25.735Z,51.08
2023-05-20T03:42:25.713Z,51.08
2023-05-20T03:43:25.747Z,51.88
2023-05-20T03:44:25.675Z,52.37
2023-05-20T03:45:25.679Z,51.56
2023-05-20T03:46:25.784Z,51.56
2023-05-20T03:47:25.798Z,51.56
2023-05-20T03:48:25.720Z,51.40
2023-05-20T03:49:25.663Z,52.05
2023-05-20T03:50:25.668Z,52.05
2023-05-20T03:51:25.630Z,50.92
2023-05-20T03:52:25.627Z,51.56
2023-05-20T03:53:25.880Z,51.40
2023-05-20T03:54:25.598Z,51.24
2023-05-20T03:55:25.591Z,51.88
2023-05-20T03:56:25.604Z,51.24
2023-05-20T03:57:25.598Z,51.24
2023-05-20T03:58:25.572Z,50.92
2023-05-20T03:59:25.630Z,50.92
2023-05-20T04:00:25.577Z,51.72
2023-05-20T04:01:25.573Z,51.24
2023-05-20T04:02:25.629Z,51.08
2023-05-20T04:03:25.626Z,50.92
2023-05-20T04:04:25.584Z,50.92
2023-05-20T04:05:25.558Z,50.92
2023-05-20T04:06:25.504Z,50.76
2023-05-20T04:07:25.506Z,51.72
2023-05-20T04:08:25.513Z,52.05
2023-05-20T04:09:25.538Z,52.05
2023-05-20T04:10:25.476Z,52.53
2023-05-20T04:11:25.506Z,51.56
2023-05-20T04:12:25.484Z,51.24
2023-05-20T04:13:25.508Z,51.24
2023-05-20T04:14:25.527Z,51.40
2023-05-20T04:15:25.496Z,51.08
2023-05-20T04:16:25.506Z,51.24
2023-05-20T04:17:25.468Z,51.40
2023-05-20T04:18:25.451Z,51.56
2023-05-20T04:19:25.462Z,50.76
2023-05-20T04:20:25.477Z,50.76
2023-05-20T04:21:25.426Z,51.08
2023-05-20T04:22:25.412Z,51.56
2023-05-20T04:23:25.424Z,51.40
2023-05-20T04:24:25.421Z,50.76
2023-05-20T04:25:25.407Z,51.24
2023-05-20T04:26:25.387Z,51.08
2023-05-20T04:27:25.397Z,51.24
2023-05-20T04:28:25.373Z,50.27
2023-05-20T04:29:25.358Z,51.08
2023-05-20T04:30:25.388Z,51.24
2023-05-20T04:31:25.386Z,51.24
2023-05-20T04:32:25.363Z,51.40
2023-05-20T04:33:25.326Z,50.92
2023-05-20T04:34:25.313Z,51.72
2023-05-20T04:35:25.328Z,51.24
2023-05-20T04:36:25.325Z,51.40
2023-05-20T04:37:25.288Z,50.92
2023-05-20T04:38:26.467Z,51.08
2023-05-20T04:39:25.292Z,51.40
2023-05-20T04:40:25.285Z,50.92
2023-05-20T04:41:25.382Z,51.56
2023-05-20T04:42:25.272Z,51.88
2023-05-20T04:43:25.255Z,51.72
2023-05-20T04:44:25.224Z,52.05
2023-05-20T04:45:25.222Z,52.21
2023-05-20T04:46:25.357Z,52.05
2023-05-20T04:47:25.295Z,53.17
2023-05-20T04:48:25.206Z,50.92
2023-05-20T04:49:25.218Z,51.24
2023-05-20T04:50:25.246Z,51.56
2023-05-20T04:51:25.194Z,50.76
2023-05-20T04:52:25.224Z,51.56
2023-05-20T04:53:25.178Z,51.40
2023-05-20T04:54:25.193Z,52.05
2023-05-20T04:55:25.164Z,51.72
2023-05-20T04:56:25.164Z,51.56
2023-05-20T04:57:25.163Z,52.05
2023-05-20T04:58:25.449Z,51.24
2023-05-20T04:59:25.166Z,51.40
2023-05-20T05:00:25.149Z,51.24
2023-05-20T05:01:25.155Z,51.88
2023-05-20T05:02:25.120Z,51.88
2023-05-20T05:03:25.115Z,52.21
2023-05-20T05:04:25.191Z,51.88
2023-05-20T05:05:25.101Z,52.05
2023-05-20T05:06:25.101Z,51.72
2023-05-20T05:07:25.090Z,51.88
2023-05-20T05:08:25.081Z,52.53
2023-05-20T05:09:25.071Z,52.05
2023-05-20T05:10:25.108Z,52.85
2023-05-20T05:11:25.076Z,52.05
2023-05-20T05:12:25.038Z,52.05
2023-05-20T05:13:25.080Z,51.08
2023-05-20T05:14:25.217Z,51.24
2023-05-20T05:15:25.021Z,52.21
2023-05-20T05:16:25.113Z,52.05
2023-05-20T05:17:25.055Z,51.56
2023-05-20T05:18:25.020Z,52.05
2023-05-20T05:19:25.120Z,51.56
2023-05-20T05:20:25.019Z,51.72
2023-05-20T05:21:24.980Z,51.72
2023-05-20T05:22:25.047Z,52.21
2023-05-20T05:23:24.958Z,51.56
2023-05-20T05:24:24.977Z,52.53
2023-05-20T05:25:24.955Z,51.88
2023-05-20T05:26:24.941Z,52.69
2023-05-20T05:27:24.951Z,52.21
2023-05-20T05:28:24.983Z,52.53
2023-05-20T05:29:24.923Z,52.37
2023-05-20T05:30:24.933Z,52.05
2023-05-20T05:31:24.920Z,51.56
2023-05-20T05:32:24.986Z,51.40
2023-05-20T05:33:24.955Z,51.72
2023-05-20T05:34:24.968Z,52.21
2023-05-20T05:35:25.042Z,51.40
2023-05-20T05:36:24.868Z,51.88
2023-05-20T05:37:24.859Z,52.37
2023-05-20T05:38:24.866Z,52.53
2023-05-20T05:39:24.852Z,52.05
2023-05-20T05:40:24.878Z,51.72
2023-05-20T05:41:24.852Z,52.37
2023-05-20T05:42:24.829Z,52.05
2023-05-20T05:43:24.825Z,51.88
2023-05-20T05:44:24.841Z,52.37
2023-05-20T05:45:24.799Z,53.33
2023-05-20T05:46:24.859Z,52.85
2023-05-20T05:47:24.822Z,53.33
2023-05-20T05:48:24.808Z,51.88
2023-05-20T05:49:24.770Z,51.40
2023-05-20T05:50:24.756Z,52.37
2023-05-20T05:51:24.804Z,52.53
2023-05-20T05:52:24.861Z,53.33
2023-05-20T05:53:24.779Z,51.88
2023-05-20T05:54:24.734Z,52.53
2023-05-20T05:55:24.766Z,52.53
2023-05-20T05:56:24.726Z,52.85
2023-05-20T05:57:24.698Z,51.40
2023-05-20T05:58:24.750Z,52.05
2023-05-20T05:59:24.706Z,51.72
2023-05-20T06:00:24.733Z,52.21
2023-05-20T06:01:24.749Z,52.05
2023-05-20T06:02:24.811Z,51.56
2023-05-20T06:03:24.772Z,52.69
2023-05-20T06:04:25.076Z,52.05
2023-05-20T06:05:25.814Z,52.53
2023-05-20T06:06:24.680Z,53.17
2023-05-20T06:07:24.656Z,52.37
2023-05-20T06:08:24.683Z,52.37
2023-05-20T06:09:24.652Z,52.05
2023-05-20T06:10:24.675Z,52.05
2023-05-20T06:11:24.632Z,52.53
2023-05-20T06:12:24.594Z,51.72
2023-05-20T06:13:24.633Z,52.05
2023-05-20T06:14:24.619Z,51.72
2023-05-20T06:15:24.604Z,52.37
2023-05-20T06:16:24.823Z,52.53
2023-05-20T06:17:24.593Z,52.21
2023-05-20T06:18:24.574Z,52.37
2023-05-20T06:19:24.616Z,53.17
2023-05-20T06:20:24.573Z,52.21
2023-05-20T06:21:24.557Z,52.37
2023-05-20T06:22:24.592Z,53.33
2023-05-20T06:23:24.564Z,51.72
2023-05-20T06:24:24.908Z,52.05
2023-05-20T06:25:24.540Z,51.56
2023-05-20T06:26:24.537Z,52.05
2023-05-20T06:27:24.520Z,52.05
2023-05-20T06:28:24.561Z,51.88
2023-05-20T06:29:24.500Z,52.53
2023-05-20T06:30:24.545Z,52.53
2023-05-20T06:31:24.540Z,52.37
2023-05-20T06:32:24.512Z,52.69
2023-05-20T06:33:24.491Z,50.92
2023-05-20T06:34:24.513Z,52.05
2023-05-20T06:35:24.475Z,53.17
2023-05-20T06:36:24.465Z,52.53
2023-05-20T06:37:24.542Z,52.05
2023-05-20T06:38:24.457Z,52.21
2023-05-20T06:39:24.434Z,52.53
2023-05-20T06:40:24.480Z,51.72
2023-05-20T06:41:24.434Z,51.88
2023-05-20T06:42:24.400Z,51.88
2023-05-20T06:43:24.404Z,51.56
2023-05-20T06:44:24.395Z,52.53
2023-05-20T06:45:24.415Z,52.85
2023-05-20T06:46:24.460Z,53.98
2023-05-20T06:47:24.391Z,53.01
2023-05-20T06:48:24.379Z,52.37
2023-05-20T06:49:24.359Z,51.40
2023-05-20T06:50:24.335Z,52.05
2023-05-20T06:51:24.335Z,52.05
2023-05-20T06:52:24.363Z,52.21
2023-05-20T06:53:24.336Z,52.85
2023-05-20T06:54:24.354Z,51.88
2023-05-20T06:55:24.317Z,52.69
2023-05-20T06:56:24.316Z,51.56
2023-05-20T06:57:24.304Z,51.72
2023-05-20T06:58:24.340Z,51.56
2023-05-20T06:59:24.300Z,52.05
2023-05-20T07:00:24.298Z,51.88
2023-05-20T07:01:24.270Z,51.88
2023-05-20T07:02:24.274Z,51.88
2023-05-20T07:03:24.255Z,51.24
2023-05-20T07:04:24.517Z,51.88
2023-05-20T07:05:24.227Z,51.40
2023-05-20T07:06:24.204Z,51.56
2023-05-20T07:07:24.218Z,54.30
2023-05-20T07:08:24.193Z,52.53
2023-05-20T07:09:24.195Z,53.98
2023-05-20T07:10:24.245Z,53.01
2023-05-20T07:11:24.194Z,53.50
2023-05-20T07:12:24.156Z,54.46
2023-05-20T07:13:24.225Z,53.66
2023-05-20T07:14:24.192Z,52.85
2023-05-20T07:15:24.183Z,51.88
2023-05-20T07:16:24.206Z,51.88
2023-05-20T07:17:24.162Z,52.05
2023-05-20T07:18:24.112Z,52.53
2023-05-20T07:19:24.315Z,52.05
2023-05-20T07:20:24.117Z,52.21
2023-05-20T07:21:24.116Z,52.05
2023-05-20T07:22:24.153Z,51.72
2023-05-20T07:23:24.121Z,52.53
2023-05-20T07:24:24.092Z,52.53
2023-05-20T07:25:24.063Z,52.05
2023-05-20T07:26:24.060Z,51.88
2023-05-20T07:27:24.060Z,53.17
2023-05-20T07:28:24.134Z,53.17
2023-05-20T07:29:24.056Z,52.53
2023-05-20T07:30:24.083Z,52.69
2023-05-20T07:31:24.044Z,53.01
2023-05-20T07:32:24.074Z,53.50
2023-05-20T07:33:24.013Z,53.33
2023-05-20T07:34:24.055Z,52.69
2023-05-20T07:35:24.003Z,52.21
2023-05-20T07:36:24.012Z,52.53
2023-05-20T07:37:24.012Z,52.21
2023-05-20T07:38:23.980Z,53.50
2023-05-20T07:39:23.994Z,53.98
2023-05-20T07:40:24.110Z,54.14
2023-05-20T07:41:23.956Z,53.01
2023-05-20T07:42:23.979Z,52.85
2023-05-20T07:43:23.977Z,52.53
2023-05-20T07:44:23.924Z,53.17
2023-05-20T07:45:23.965Z,53.50
2023-05-20T07:46:23.999Z,53.01
2023-05-20T07:47:23.928Z,53.82
2023-05-20T07:48:23.938Z,52.69
2023-05-20T07:49:23.904Z,51.88
2023-05-20T07:50:23.880Z,52.53
2023-05-20T07:51:23.893Z,52.37
2023-05-20T07:52:23.914Z,52.53
2023-05-20T07:53:23.881Z,53.33
2023-05-20T07:54:23.865Z,54.95
2023-05-20T07:55:23.873Z,54.95
2023-05-20T07:56:23.852Z,53.98
2023-05-20T07:57:23.843Z,52.85
2023-05-20T07:58:23.874Z,52.53
2023-05-20T07:59:23.853Z,52.85
2023-05-20T08:00:23.881Z,52.85
2023-05-20T08:01:23.818Z,52.05
2023-05-20T08:02:23.853Z,52.53
2023-05-20T08:03:23.907Z,53.82
2023-05-20T08:04:23.887Z,54.14
2023-05-20T08:05:23.784Z,53.01
2023-05-20T08:06:23.810Z,53.33
2023-05-20T08:07:23.752Z,52.37
2023-05-20T08:08:23.764Z,53.50
2023-05-20T08:09:23.753Z,56.07
2023-05-20T08:10:23.960Z,55.11
2023-05-20T08:11:23.720Z,53.01
2023-05-20T08:12:23.733Z,53.17
2023-05-20T08:13:23.731Z,52.05
2023-05-20T08:14:23.725Z,52.69
2023-05-20T08:15:23.693Z,53.50
2023-05-20T08:16:23.734Z,52.37
2023-05-20T08:17:23.727Z,53.66
2023-05-20T08:18:23.671Z,52.85
2023-05-20T08:19:23.767Z,51.40
2023-05-20T08:20:23.690Z,51.72
2023-05-20T08:21:23.660Z,52.05
2023-05-20T08:22:23.702Z,52.05
2023-05-20T08:23:23.642Z,53.17
2023-05-20T08:24:23.656Z,54.14
2023-05-20T08:25:23.653Z,53.50
2023-05-20T08:26:23.636Z,54.46
2023-05-20T08:27:23.625Z,52.85
2023-05-20T08:28:23.634Z,55.11
2023-05-20T08:29:23.593Z,53.66
2023-05-20T08:30:23.596Z,53.66
2023-05-20T08:31:23.606Z,52.69
2023-05-20T08:32:23.684Z,52.05
2023-05-20T08:33:23.576Z,54.14
2023-05-20T08:34:23.622Z,55.91
2023-05-20T08:35:24.802Z,54.14
2023-05-20T08:36:23.559Z,54.14
2023-05-20T08:37:23.536Z,56.24
2023-05-20T08:38:23.582Z,53.50
2023-05-20T08:39:23.524Z,53.66
2023-05-20T08:40:23.593Z,53.66
2023-05-20T08:41:23.501Z,53.66
2023-05-20T08:42:23.537Z,54.62
2023-05-20T08:43:23.485Z,55.27
2023-05-20T08:44:23.514Z,56.72
2023-05-20T08:45:23.478Z,55.27
2023-05-20T08:46:23.596Z,54.30
2023-05-20T08:47:23.474Z,54.14
2023-05-20T08:48:23.473Z,52.53
2023-05-20T08:49:23.542Z,53.33
2023-05-20T08:50:23.457Z,52.69
2023-05-20T08:51:23.849Z,52.85
2023-05-20T08:52:23.474Z,52.69
2023-05-20T08:53:23.475Z,51.72
2023-05-20T08:54:23.437Z,52.21
2023-05-20T08:55:23.418Z,52.21
2023-05-20T08:56:23.414Z,53.66
2023-05-20T08:57:23.429Z,51.72
2023-05-20T08:58:23.596Z,52.53
2023-05-20T08:59:23.404Z,54.14
2023-05-20T09:00:23.388Z,55.59
2023-05-20T09:01:23.413Z,55.91
2023-05-20T09:02:23.417Z,53.17
2023-05-20T09:03:23.371Z,53.01
2023-05-20T09:04:23.417Z,52.37
2023-05-20T09:05:23.368Z,53.82
2023-05-20T09:06:23.366Z,53.01
2023-05-20T09:07:23.345Z,53.33
2023-05-20T09:08:23.336Z,53.66
2023-05-20T09:09:23.334Z,54.79
2023-05-20T09:10:23.627Z,54.14
2023-05-20T09:11:23.326Z,52.53
2023-05-20T09:12:23.298Z,53.01
2023-05-20T09:13:24.008Z,53.33
2023-05-20T09:14:23.290Z,55.11
2023-05-20T09:15:23.285Z,54.14
2023-05-20T09:16:23.392Z,54.62
2023-05-20T09:17:23.315Z,55.11
2023-05-20T09:18:23.241Z,53.98
2023-05-20T09:19:24.437Z,53.50
2023-05-20T09:20:23.254Z,53.01
2023-05-20T09:21:23.235Z,52.37
2023-05-20T09:22:23.253Z,53.01
2023-05-20T09:23:23.246Z,52.69
2023-05-20T09:24:23.250Z,52.85
2023-05-20T09:25:24.024Z,51.88
2023-05-20T09:26:23.198Z,51.72
2023-05-20T09:27:23.188Z,53.66
2023-05-20T09:28:23.211Z,53.17
2023-05-20T09:29:23.197Z,53.50
2023-05-20T09:30:23.158Z,55.91
2023-05-20T09:31:23.170Z,55.75
2023-05-20T09:32:23.167Z,54.14
2023-05-20T09:33:23.155Z,51.72
2023-05-20T09:34:23.161Z,52.69
2023-05-20T09:35:23.125Z,51.72
2023-05-20T09:36:23.121Z,53.33
2023-05-20T09:37:23.125Z,52.69
2023-05-20T09:38:23.104Z,51.08
2023-05-20T09:39:23.106Z,52.53
2023-05-20T09:40:23.139Z,50.76
2023-05-20T09:41:23.093Z,52.85
2023-05-20T09:42:23.099Z,53.33
2023-05-20T09:43:23.069Z,52.37
2023-05-20T09:44:23.088Z,55.27
2023-05-20T09:45:23.056Z,55.11
2023-05-20T09:46:23.168Z,53.01
2023-05-20T09:47:23.089Z,52.69
2023-05-20T09:48:23.038Z,53.50
2023-05-20T09:49:23.004Z,53.82
2023-05-20T09:50:23.015Z,53.50
2023-05-20T09:51:23.010Z,54.30
2023-05-20T09:52:23.030Z,53.66
2023-05-20T09:53:23.029Z,54.30
2023-05-20T09:54:22.984Z,53.82
2023-05-20T09:55:23.008Z,54.95
2023-05-20T09:56:22.973Z,52.53
2023-05-20T09:57:22.966Z,53.50
2023-05-20T09:58:22.983Z,53.66
2023-05-20T09:59:22.944Z,54.46
2023-05-20T10:00:22.963Z,55.75
2023-05-20T10:01:22.948Z,57.85
2023-05-20T10:02:23.011Z,55.75
2023-05-20T10:03:23.145Z,54.62
2023-05-20T10:04:22.946Z,52.69
2023-05-20T10:05:22.912Z,54.30
2023-05-20T10:06:22.909Z,52.21
2023-05-20T10:07:34.031Z,53.17
2023-05-20T10:08:23.893Z,52.69
2023-05-20T10:09:22.914Z,53.98
2023-05-20T10:10:22.930Z,53.82
2023-05-20T10:11:22.876Z,51.72
2023-05-20T10:12:22.867Z,53.66
2023-05-20T10:13:22.853Z,53.17
2023-05-20T10:14:22.840Z,54.46
2023-05-20T10:15:22.859Z,56.07
2023-05-20T10:16:23.476Z,56.56
2023-05-20T10:17:22.839Z,53.66
2023-05-20T10:18:22.808Z,54.14
2023-05-20T10:19:22.996Z,53.50
2023-05-20T10:20:22.824Z,52.37
2023-05-20T10:21:22.778Z,52.53
2023-05-20T10:22:22.818Z,53.50
2023-05-20T10:23:22.777Z,52.85
2023-05-20T10:24:22.776Z,52.21
2023-05-20T10:25:22.765Z,53.17
2023-05-20T10:26:22.761Z,53.17
2023-05-20T10:27:22.753Z,52.85
2023-05-20T10:28:22.893Z,52.53
2023-05-20T10:29:22.730Z,54.79
2023-05-20T10:30:22.771Z,54.46
2023-05-20T10:31:22.707Z,54.95
2023-05-20T10:32:22.755Z,53.66
2023-05-20T10:33:22.744Z,51.40
2023-05-20T10:34:22.729Z,53.82
2023-05-20T10:35:22.698Z,51.72
2023-05-20T10:36:22.684Z,52.69
2023-05-20T10:37:22.657Z,52.21
2023-05-20T10:38:22.682Z,52.69
2023-05-20T10:39:22.679Z,53.66
2023-05-20T10:40:22.729Z,53.82
2023-05-20T10:41:22.661Z,54.95
2023-05-20T10:42:22.674Z,51.24
2023-05-20T10:43:24.026Z,52.21
2023-05-20T10:44:22.640Z,52.53
2023-05-20T10:45:22.616Z,52.21
2023-05-20T10:47:25.820Z,52.05
2023-05-20T10:48:22.711Z,51.72
2023-05-20T10:49:26.832Z,51.56
2023-05-20T10:50:23.567Z,53.82
2023-05-20T10:51:22.595Z,53.17
2023-05-20T10:52:22.594Z,52.21
2023-05-20T10:53:32.790Z,52.85
2023-05-20T10:54:23.555Z,54.79
2023-05-20T10:55:22.601Z,54.95
2023-05-20T10:56:22.560Z,54.95
2023-05-20T10:57:22.515Z,53.98
2023-05-20T10:58:22.566Z,54.30
2023-05-20T10:59:22.627Z,51.24
2023-05-20T11:00:22.508Z,52.53
2023-05-20T11:01:22.552Z,53.01
2023-05-20T11:02:22.511Z,53.50
2023-05-20T11:03:22.611Z,52.21
2023-05-20T11:04:22.501Z,53.17
2023-05-20T11:05:22.462Z,53.98
2023-05-20T11:06:22.466Z,52.53
2023-05-20T11:07:22.492Z,51.88
2023-05-20T11:08:28.901Z,52.37
2023-05-20T11:09:23.497Z,54.14
2023-05-20T11:10:22.442Z,54.95
2023-05-20T11:11:22.428Z,55.11
2023-05-20T11:12:22.514Z,53.33
2023-05-20T11:13:22.456Z,52.21
2023-05-20T11:14:22.439Z,52.69
2023-05-20T11:15:22.426Z,52.85
2023-05-20T11:16:22.480Z,52.69
2023-05-20T11:17:22.401Z,52.53
2023-05-20T11:18:22.380Z,52.85
2023-05-20T11:19:22.405Z,53.66
2023-05-20T11:20:22.383Z,54.46
2023-05-20T11:21:22.657Z,54.79
2023-05-20T11:22:22.360Z,51.40
2023-05-20T11:23:22.339Z,53.01
2023-05-20T11:24:22.353Z,55.11
2023-05-20T11:25:22.384Z,53.33
2023-05-20T11:26:22.361Z,53.66
2023-05-20T11:27:22.405Z,52.21
2023-05-20T11:28:22.325Z,51.40
2023-05-20T11:29:22.291Z,50.92
2023-05-20T11:30:22.287Z,53.01
2023-05-20T11:31:22.285Z,53.33
2023-05-20T11:32:22.385Z,53.50
2023-05-20T11:33:22.380Z,53.82
2023-05-20T11:34:24.827Z,53.50
2023-05-20T11:35:22.234Z,52.37
2023-05-20T11:36:28.061Z,51.40
2023-05-20T11:37:23.276Z,52.21
2023-05-20T11:38:22.222Z,51.72
2023-05-20T11:39:22.359Z,54.95
2023-05-20T11:40:22.223Z,53.82
2023-05-20T11:41:22.199Z,54.30
2023-05-20T11:42:22.231Z,53.50
2023-05-20T11:43:22.175Z,52.05
2023-05-20T11:44:22.218Z,50.76
2023-05-20T11:45:22.235Z,51.56
2023-05-20T11:46:22.218Z,51.88
2023-05-20T11:47:22.762Z,54.14
2023-05-20T11:48:22.198Z,55.27
2023-05-20T11:49:22.173Z,53.50
2023-05-20T11:50:22.223Z,52.05
2023-05-20T11:51:22.182Z,53.01
2023-05-20T11:52:22.138Z,52.05
2023-05-20T11:53:22.113Z,52.05
2023-05-20T11:54:22.096Z,54.14
2023-05-20T11:55:22.112Z,54.46
2023-05-20T11:56:22.136Z,53.66
2023-05-20T11:57:22.116Z,50.92
2023-05-20T11:58:22.108Z,51.88
2023-05-20T11:59:22.076Z,51.88
2023-05-20T12:00:22.136Z,52.05
2023-05-20T12:01:23.286Z,52.53
2023-05-20T12:02:22.226Z,53.66
2023-05-20T12:03:22.222Z,51.72
2023-05-20T12:04:22.161Z,51.72
2023-05-20T12:05:22.062Z,52.69
2023-05-20T12:06:22.004Z,52.21
2023-05-20T12:07:22.005Z,51.72
2023-05-20T12:08:22.005Z,51.24
2023-05-20T12:09:22.024Z,54.14
2023-05-20T12:10:22.014Z,55.11
2023-05-20T12:11:22.013Z,53.17
2023-05-20T12:12:22.066Z,51.56
2023-05-20T12:13:21.967Z,52.21
2023-05-20T12:14:22.070Z,51.56
2023-05-20T12:15:23.049Z,51.56
2023-05-20T12:16:22.065Z,51.88
2023-05-20T12:17:21.946Z,52.69
2023-05-20T12:18:21.990Z,52.69
2023-05-20T12:19:21.947Z,52.69
2023-05-20T12:20:21.933Z,53.50
2023-05-20T12:21:22.006Z,51.56
2023-05-20T12:22:21.917Z,51.40
2023-05-20T12:23:21.929Z,51.40
2023-05-20T12:24:21.922Z,54.14
2023-05-20T12:25:21.895Z,53.66
2023-05-20T12:26:21.955Z,54.30
2023-05-20T12:27:22.357Z,53.17
2023-05-20T12:28:21.896Z,51.24
2023-05-20T12:29:21.869Z,53.17
2023-05-20T12:30:21.878Z,53.01
2023-05-20T12:31:21.875Z,51.56
2023-05-20T12:32:21.834Z,52.85
2023-05-20T12:33:21.880Z,51.88
2023-05-20T12:34:21.852Z,52.05
2023-05-20T12:35:21.783Z,51.40
2023-05-20T12:36:21.811Z,52.05
2023-05-20T12:37:21.854Z,52.21
2023-05-20T12:38:21.847Z,51.40
2023-05-20T12:39:21.836Z,54.30
2023-05-20T12:40:21.816Z,55.91
2023-05-20T12:41:21.767Z,54.46
2023-05-20T12:42:21.747Z,51.40
2023-05-20T12:43:21.742Z,53.17
2023-05-20T12:44:21.841Z,52.37
2023-05-20T12:45:21.828Z,53.01
2023-05-20T12:46:21.736Z,53.01
2023-05-20T12:47:21.878Z,52.53
2023-05-20T12:48:21.730Z,52.05
2023-05-20T12:49:21.690Z,52.37
2023-05-20T12:50:21.689Z,53.01
2023-05-20T12:51:21.743Z,52.05
2023-05-20T12:52:22.819Z,52.37
2023-05-20T12:53:21.670Z,53.50
2023-05-20T12:54:21.711Z,54.79
2023-05-20T12:55:21.664Z,55.11